createdAt,value
2022-08-07T00:00:26.573Z,11.70
2022-08-07T00:02:56.002Z,11.72
2022-08-07T00:05:24.135Z,11.68
2022-08-07T00:08:00.050Z,11.65
2022-08-07T00:10:30.996Z,11.60
2022-08-07T00:13:17.450Z,11.53
2022-08-07T00:15:51.890Z,11.46
2022-08-07T00:18:24.426Z,11.38
2022-08-07T00:20:53.275Z,11.34
2022-08-07T00:23:21.142Z,11.29
2022-08-07T00:25:52.501Z,11.24
2022-08-07T00:28:33.450Z,11.26
2022-08-07T00:31:04.406Z,11.27
2022-08-07T00:33:34.450Z,11.26
2022-08-07T00:36:02.835Z,11.26
2022-08-07T00:38:31.687Z,11.26
2022-08-07T00:41:02.417Z,11.22
2022-08-07T00:44:01.715Z,11.19
2022-08-07T00:46:17.970Z,11.19
2022-08-07T00:48:45.667Z,11.17
2022-08-07T00:51:18.201Z,11.15
2022-08-07T00:53:50.714Z,11.06
2022-08-07T00:56:30.277Z,10.99
2022-08-07T00:58:58.802Z,10.98
2022-08-07T01:01:26.738Z,10.97
2022-08-07T01:04:00.347Z,10.94
2022-08-07T01:06:29.522Z,10.90
2022-08-07T01:09:00.630Z,10.86
2022-08-07T01:12:09.225Z,10.88
2022-08-07T01:14:21.378Z,10.92
2022-08-07T01:16:57.113Z,10.83
2022-08-07T01:19:27.522Z,10.73
2022-08-07T01:22:03.302Z,10.69
2022-08-07T01:24:31.841Z,10.67
2022-08-07T01:27:00.526Z,10.67
2022-08-07T01:29:31.436Z,10.61
2022-08-07T01:32:05.231Z,10.56
2022-08-07T01:34:34.130Z,10.51
2022-08-07T01:37:03.878Z,10.52
2022-08-07T01:39:40.969Z,10.52
2022-08-07T01:42:38.057Z,10.39
2022-08-07T01:45:04.194Z,10.39
2022-08-07T01:48:17.797Z,10.33
2022-08-07T01:50:22.809Z,10.32
2022-08-07T01:53:01.138Z,10.32
2022-08-07T01:55:33.340Z,10.30
2022-08-07T01:58:27.126Z,10.27
2022-08-07T02:01:09.298Z,10.29
2022-08-07T02:03:50.499Z,10.18
2022-08-07T02:06:31.557Z,10.09
2022-08-07T02:09:05.774Z,10.01
2022-08-07T02:12:04.305Z,9.96
2022-08-07T02:14:40.262Z,9.85
2022-08-07T02:17:09.275Z,9.87
2022-08-07T02:20:07.652Z,9.75
2022-08-07T02:22:33.712Z,9.69
2022-08-07T02:25:07.107Z,9.69
2022-08-07T02:27:44.023Z,9.65
2022-08-07T02:30:19.356Z,9.64
2022-08-07T02:33:00.408Z,9.60
2022-08-07T02:36:30.619Z,9.67
2022-08-07T02:38:28.013Z,9.61
2022-08-07T02:41:03.756Z,9.67
2022-08-07T02:43:32.888Z,9.70
2022-08-07T02:46:03.051Z,9.64
2022-08-07T02:48:32.036Z,9.61
2022-08-07T02:51:06.672Z,9.63
2022-08-07T02:53:38.544Z,9.65
2022-08-07T02:56:21.145Z,9.68
2022-08-07T02:58:54.033Z,9.68
2022-08-07T03:01:35.443Z,9.75
2022-08-07T03:04:07.569Z,9.78
2022-08-07T03:06:37.734Z,9.81
2022-08-07T03:09:11.447Z,9.88
2022-08-07T03:11:52.258Z,9.89
2022-08-07T03:14:27.701Z,9.87
2022-08-07T03:16:56.758Z,9.87
2022-08-07T03:19:29.061Z,9.86
2022-08-07T03:22:06.956Z,9.78
2022-08-07T03:24:36.757Z,9.70
2022-08-07T03:27:09.317Z,9.67
2022-08-07T03:29:46.249Z,9.65
2022-08-07T03:32:23.459Z,9.64
2022-08-07T03:35:16.531Z,9.64
2022-08-07T03:37:46.123Z,9.61
2022-08-07T03:40:22.158Z,9.57
2022-08-07T03:42:52.230Z,9.51
2022-08-07T03:45:30.755Z,9.50
2022-08-07T03:48:00.613Z,9.51
2022-08-07T03:50:29.959Z,9.47
2022-08-07T03:52:59.935Z,9.48
2022-08-07T03:55:46.108Z,9.47
2022-08-07T03:59:05.127Z,9.55
2022-08-07T04:01:11.324Z,9.61
2022-08-07T04:03:49.688Z,9.57
2022-08-07T04:06:37.926Z,9.63
2022-08-07T04:09:08.338Z,9.65
2022-08-07T04:12:23.653Z,9.66
2022-08-07T04:14:37.661Z,9.70
2022-08-07T04:17:21.212Z,9.71
2022-08-07T04:19:51.873Z,9.50
2022-08-07T04:22:29.134Z,9.38
2022-08-07T04:24:58.444Z,9.32
2022-08-07T04:27:26.844Z,9.32
2022-08-07T04:30:02.337Z,9.28
2022-08-07T04:32:35.122Z,9.30
2022-08-07T04:35:05.420Z,9.33
2022-08-07T04:37:52.726Z,9.47
2022-08-07T04:40:22.871Z,9.71
2022-08-07T04:43:02.134Z,9.87
2022-08-07T04:45:57.217Z,10.03
2022-08-07T04:48:35.458Z,10.20
2022-08-07T04:51:09.018Z,10.32
2022-08-07T04:54:01.486Z,10.47
2022-08-07T04:58:16.756Z,10.72
2022-08-07T05:00:10.702Z,11.00
2022-08-07T05:02:27.974Z,11.70
2022-08-07T05:05:11.544Z,12.23
2022-08-07T05:07:58.101Z,13.08
2022-08-07T05:10:32.000Z,13.91
2022-08-07T05:14:44.784Z,13.76
2022-08-07T05:15:54.907Z,14.08
2022-08-07T05:18:29.585Z,14.95
2022-08-07T05:21:00.327Z,15.54
2022-08-07T05:23:35.639Z,16.52
2022-08-07T05:26:13.544Z,17.96
2022-08-07T05:28:50.351Z,19.96
2022-08-07T05:31:21.562Z,20.92
2022-08-07T05:34:04.549Z,21.46
2022-08-07T05:36:35.398Z,22.09
2022-08-07T05:40:05.819Z,23.45
2022-08-07T05:42:01.096Z,24.92
2022-08-07T05:44:34.628Z,26.02
2022-08-07T05:47:18.315Z,26.44
2022-08-07T05:49:49.154Z,25.95
2022-08-07T05:52:20.260Z,27.11
2022-08-07T05:54:55.622Z,26.92
2022-08-07T05:57:26.561Z,25.92
2022-08-07T06:00:00.229Z,26.72
2022-08-07T06:02:32.611Z,25.78
2022-08-07T06:05:06.143Z,25.03
2022-08-07T06:08:13.317Z,25.93
2022-08-07T06:10:24.474Z,27.16
2022-08-07T06:12:52.193Z,27.47
2022-08-07T06:15:21.044Z,28.10
2022-08-07T06:17:53.449Z,27.83
2022-08-07T06:20:31.895Z,27.65
2022-08-07T06:23:46.034Z,28.16
2022-08-07T06:26:01.373Z,28.53
2022-08-07T06:28:29.773Z,27.40
2022-08-07T06:30:58.380Z,28.49
2022-08-07T06:33:26.714Z,28.66
2022-08-07T06:36:06.837Z,28.45
2022-08-07T06:38:58.892Z,28.68
2022-08-07T06:42:01.138Z,28.17
2022-08-07T06:44:24.119Z,28.31
2022-08-07T06:46:53.758Z,28.53
2022-08-07T06:49:52.203Z,28.19
2022-08-07T06:52:35.663Z,28.24
2022-08-07T06:55:33.671Z,28.25
2022-08-07T06:57:57.169Z,27.68
2022-08-07T07:00:28.302Z,28.06
2022-08-07T07:03:01.125Z,27.63
2022-08-07T07:06:04.110Z,28.06
2022-08-07T07:08:26.531Z,28.56
2022-08-07T07:10:57.073Z,29.19
2022-08-07T07:13:43.562Z,28.97
2022-08-07T07:16:23.015Z,29.70
2022-08-07T07:19:00.426Z,29.08
2022-08-07T07:22:04.900Z,29.49
2022-08-07T07:24:32.968Z,29.15
2022-08-07T07:27:04.396Z,29.10
2022-08-07T07:29:56.679Z,29.90
2022-08-07T07:32:26.433Z,28.72
2022-08-07T07:34:57.861Z,29.59
2022-08-07T07:37:47.517Z,29.13
2022-08-07T07:40:26.239Z,27.79
2022-08-07T07:42:56.458Z,28.96
2022-08-07T07:46:53.833Z,29.57
2022-08-07T07:48:24.316Z,29.01
2022-08-07T07:51:07.827Z,29.91
2022-08-07T07:53:51.390Z,30.73
2022-08-07T07:56:30.491Z,29.36
2022-08-07T07:59:01.626Z,29.22
2022-08-07T08:02:04.061Z,28.30
2022-08-07T08:04:25.851Z,28.07
2022-08-07T08:06:56.163Z,28.92
2022-08-07T08:09:29.211Z,28.14
2022-08-07T08:12:05.018Z,28.65
2022-08-07T08:14:34.368Z,28.33
2022-08-07T08:17:56.447Z,28.74
2022-08-07T08:20:17.627Z,28.75
2022-08-07T08:23:03.199Z,28.82
2022-08-07T08:25:54.510Z,26.98
2022-08-07T08:28:37.986Z,26.98
2022-08-07T08:31:15.755Z,27.15
2022-08-07T08:33:49.248Z,27.13
2022-08-07T08:36:25.593Z,25.96
2022-08-07T08:39:00.014Z,25.71
2022-08-07T08:41:57.503Z,25.55
2022-08-07T08:44:37.271Z,25.08
2022-08-07T08:47:22.662Z,25.06
2022-08-07T08:50:05.561Z,24.93
2022-08-07T08:52:40.915Z,24.53
2022-08-07T08:55:55.018Z,24.25
2022-08-07T08:58:28.918Z,24.25
2022-08-07T09:01:16.125Z,24.09
2022-08-07T09:03:56.997Z,24.06
2022-08-07T09:06:42.835Z,24.69
2022-08-07T09:09:33.183Z,24.44
2022-08-07T09:12:31.223Z,24.55
2022-08-07T09:16:25.298Z,24.52
2022-08-07T09:18:22.088Z,24.54
2022-08-07T09:21:33.800Z,25.08
2022-08-07T09:24:54.956Z,25.13
2022-08-07T09:27:12.056Z,24.97
2022-08-07T09:30:03.182Z,25.48
2022-08-07T09:32:56.777Z,24.61
2022-08-07T09:36:02.988Z,25.15
2022-08-07T09:38:32.435Z,25.54
2022-08-07T09:41:22.382Z,24.98
2022-08-07T09:44:06.150Z,25.06
2022-08-07T09:47:51.887Z,25.45
2022-08-07T09:50:01.255Z,25.07
2022-08-07T09:52:43.882Z,25.00
2022-08-07T09:55:37.007Z,24.63
2022-08-07T09:58:48.803Z,24.34
2022-08-07T10:01:51.480Z,24.06
2022-08-07T10:04:38.230Z,23.85
2022-08-07T10:07:39.754Z,23.60
2022-08-07T10:10:25.049Z,23.77
2022-08-07T10:13:55.394Z,23.85
2022-08-07T10:16:40.225Z,23.45
2022-08-07T10:19:30.754Z,23.27
2022-08-07T10:22:24.991Z,23.16
2022-08-07T10:25:22.586Z,23.52
2022-08-07T10:28:04.398Z,23.39
2022-08-07T10:30:42.813Z,23.82
2022-08-07T10:34:15.133Z,23.99
2022-08-07T10:36:36.031Z,24.28
2022-08-07T10:39:09.143Z,24.34
2022-08-07T10:41:52.393Z,24.32
2022-08-07T10:44:38.069Z,24.19
2022-08-07T10:47:27.151Z,24.29
2022-08-07T10:50:15.108Z,24.17
2022-08-07T10:52:53.314Z,23.81
2022-08-07T10:55:36.952Z,23.87
2022-08-07T10:58:33.343Z,23.74
2022-08-07T11:01:22.280Z,23.61
2022-08-07T11:04:11.035Z,23.78
2022-08-07T11:06:55.534Z,23.78
2022-08-07T11:10:08.774Z,23.58
2022-08-07T11:12:31.729Z,23.74
2022-08-07T11:15:09.683Z,24.05
2022-08-07T11:17:49.554Z,24.28
2022-08-07T11:20:22.387Z,23.88
2022-08-07T11:23:01.378Z,23.85
2022-08-07T11:25:36.276Z,23.50
2022-08-07T11:28:16.652Z,23.34
2022-08-07T11:30:55.713Z,23.37
2022-08-07T11:33:58.610Z,23.66
2022-08-07T11:36:34.768Z,23.86
2022-08-07T11:39:14.494Z,23.86
2022-08-07T11:42:01.824Z,24.33
2022-08-07T11:44:40.520Z,24.30
2022-08-07T11:47:55.882Z,24.53
2022-08-07T11:50:44.240Z,24.46
2022-08-07T11:53:56.990Z,24.27
2022-08-07T11:56:37.440Z,24.01
2022-08-07T12:00:07.681Z,23.70
2022-08-07T12:02:30.432Z,23.87
2022-08-07T12:05:15.353Z,23.57
2022-08-07T12:08:04.009Z,23.62
2022-08-07T12:10:42.019Z,23.77
2022-08-07T12:13:18.621Z,23.89
2022-08-07T12:16:08.893Z,24.21
2022-08-07T12:18:45.182Z,24.17
2022-08-07T12:22:36.323Z,23.85
2022-08-07T12:24:37.898Z,23.81
2022-08-07T12:27:16.327Z,23.82
2022-08-07T12:29:52.573Z,23.86
2022-08-07T12:32:25.150Z,23.82
2022-08-07T12:34:56.142Z,24.15
2022-08-07T12:37:28.602Z,24.39
2022-08-07T12:40:43.905Z,24.54
2022-08-07T12:43:09.915Z,24.15
2022-08-07T12:45:50.258Z,24.30
2022-08-07T12:48:51.776Z,24.47
2022-08-07T12:51:20.612Z,24.56
2022-08-07T12:54:23.774Z,24.51
2022-08-07T12:56:51.311Z,24.60
2022-08-07T12:59:33.123Z,24.36
2022-08-07T13:02:13.834Z,24.42
2022-08-07T13:05:01.996Z,24.47
2022-08-07T13:08:12.555Z,24.57
2022-08-07T13:10:54.800Z,24.69
2022-08-07T13:13:49.114Z,24.76
2022-08-07T13:16:25.624Z,24.78
2022-08-07T13:19:02.012Z,24.81
2022-08-07T13:21:50.122Z,24.92
2022-08-07T13:24:25.834Z,25.00
2022-08-07T13:27:05.609Z,24.84
2022-08-07T13:29:42.292Z,24.69
2022-08-07T13:32:32.309Z,24.76
2022-08-07T13:35:08.782Z,25.05
2022-08-07T13:37:55.477Z,25.19
2022-08-07T13:40:36.340Z,25.01
2022-08-07T13:43:16.154Z,25.22
2022-08-07T13:46:11.416Z,25.22
2022-08-07T13:48:39.038Z,25.00
2022-08-07T13:51:27.139Z,24.74
2022-08-07T13:54:02.046Z,24.85
2022-08-07T13:56:35.655Z,24.47
2022-08-07T13:59:14.020Z,24.27
2022-08-07T14:01:51.487Z,24.48
2022-08-07T14:04:36.106Z,24.34
2022-08-07T14:07:09.302Z,24.39
2022-08-07T14:10:02.888Z,24.42
2022-08-07T14:12:41.818Z,24.80
2022-08-07T14:15:32.147Z,24.70
2022-08-07T14:18:27.444Z,24.73
2022-08-07T14:21:00.431Z,24.90
2022-08-07T14:24:01.177Z,25.26
2022-08-07T14:26:31.788Z,24.78
2022-08-07T14:29:10.538Z,24.79
2022-08-07T14:31:57.972Z,24.77
2022-08-07T14:34:30.621Z,24.56
2022-08-07T14:37:01.967Z,24.63
2022-08-07T14:40:15.517Z,24.79
2022-08-07T14:42:26.002Z,24.56
2022-08-07T14:47:50.448Z,24.69
2022-08-07T14:50:22.588Z,24.78
2022-08-07T14:52:53.851Z,24.71
2022-08-07T14:55:22.265Z,24.63
2022-08-07T15:00:43.541Z,24.71
2022-08-07T15:03:18.641Z,24.75
2022-08-07T15:05:54.420Z,24.86
2022-08-07T15:08:34.889Z,24.93
2022-08-07T15:11:53.653Z,24.87
2022-08-07T15:14:10.828Z,25.01
2022-08-07T15:20:30.385Z,25.07
2022-08-07T15:22:31.416Z,25.10
2022-08-07T15:28:14.149Z,25.17
2022-08-07T15:33:42.725Z,24.72
2022-08-07T15:36:13.471Z,24.64
2022-08-07T15:47:16.807Z,24.42
2022-08-07T15:50:03.936Z,24.43
2022-08-07T15:52:38.607Z,24.50
2022-08-07T15:55:11.437Z,24.37
2022-08-07T15:57:47.785Z,24.34
2022-08-07T16:00:31.045Z,24.34
2022-08-07T16:03:05.219Z,24.31
2022-08-07T16:05:34.391Z,24.32
2022-08-07T16:08:33.218Z,24.28
2022-08-07T16:11:03.429Z,24.15
2022-08-07T16:13:59.580Z,24.20
2022-08-07T16:17:14.902Z,23.98
2022-08-07T16:20:04.011Z,24.01
2022-08-07T16:22:55.464Z,23.91
2022-08-07T16:25:55.249Z,23.90
2022-08-07T16:30:06.017Z,23.84
2022-08-07T16:31:58.547Z,23.81
2022-08-07T16:34:39.527Z,23.83
2022-08-07T16:38:04.828Z,23.76
2022-08-07T16:41:11.252Z,23.72
2022-08-07T16:44:03.860Z,23.66
2022-08-07T16:47:16.597Z,23.56
2022-08-07T16:50:35.507Z,23.53
2022-08-07T16:54:01.470Z,23.54
2022-08-07T16:56:18.920Z,23.50
2022-08-07T16:59:10.897Z,23.42
2022-08-07T17:01:52.299Z,23.42
2022-08-07T17:04:35.343Z,23.27
2022-08-07T17:07:13.625Z,23.30
2022-08-07T17:10:06.284Z,23.21
2022-08-07T17:12:46.195Z,23.07
2022-08-07T17:15:21.834Z,23.03
2022-08-07T17:18:03.480Z,23.02
2022-08-07T17:20:37.496Z,22.93
2022-08-07T17:23:17.574Z,22.86
2022-08-07T17:25:54.791Z,22.89
2022-08-07T17:28:32.066Z,22.80
2022-08-07T17:31:16.465Z,22.69
2022-08-07T17:34:19.855Z,22.64
2022-08-07T17:36:58.051Z,22.59
2022-08-07T17:39:58.351Z,22.54
2022-08-07T17:42:59.502Z,22.51
2022-08-07T17:45:29.064Z,22.44
2022-08-07T17:48:06.659Z,22.38
2022-08-07T17:50:52.365Z,22.29
2022-08-07T17:54:00.609Z,22.23
2022-08-07T17:56:28.813Z,22.15
2022-08-07T17:59:04.562Z,22.08
2022-08-07T18:01:38.000Z,21.98
2022-08-07T18:04:16.952Z,21.91
2022-08-07T18:06:57.888Z,21.80
2022-08-07T18:10:04.279Z,21.65
2022-08-07T18:12:36.695Z,21.48
2022-08-07T18:15:12.403Z,21.34
2022-08-07T18:18:47.544Z,21.17
2022-08-07T18:21:12.558Z,21.02
2022-08-07T18:23:58.580Z,20.86
2022-08-07T18:26:40.865Z,20.70
2022-08-07T18:30:06.533Z,20.55
2022-08-07T18:32:29.263Z,20.39
2022-08-07T18:35:12.639Z,20.25
2022-08-07T18:38:56.829Z,20.12
2022-08-07T18:41:09.185Z,19.96
2022-08-07T18:43:57.261Z,19.81
2022-08-07T18:46:33.541Z,19.67
2022-08-07T18:50:19.035Z,19.60
2022-08-07T18:52:25.676Z,19.49
2022-08-07T18:55:40.801Z,19.40
2022-08-07T18:58:14.344Z,19.27
2022-08-07T19:00:55.136Z,19.19
2022-08-07T19:03:37.626Z,19.09
2022-08-07T19:06:16.297Z,19.01
2022-08-07T19:09:09.589Z,18.90
2022-08-07T19:12:12.162Z,18.82
2022-08-07T19:14:51.008Z,18.74
2022-08-07T19:17:59.401Z,18.62
2022-08-07T19:20:30.003Z,18.53
2022-08-07T19:23:18.741Z,18.44
2022-08-07T19:26:23.776Z,18.24
2022-08-07T19:30:53.374Z,18.06
2022-08-07T19:32:05.371Z,18.00
2022-08-07T19:34:32.419Z,17.84
2022-08-07T19:37:16.915Z,17.72
2022-08-07T19:39:57.025Z,17.61
2022-08-07T19:42:31.451Z,17.50
2022-08-07T19:45:08.645Z,17.39
2022-08-07T19:47:42.229Z,17.27
2022-08-07T19:50:44.001Z,17.19
2022-08-07T19:53:00.978Z,17.10
2022-08-07T19:55:57.575Z,17.12
2022-08-07T19:58:28.312Z,17.03
2022-08-07T20:01:01.746Z,17.06
2022-08-07T20:03:34.869Z,17.02
2022-08-07T20:06:04.890Z,16.96
2022-08-07T20:08:34.602Z,16.93
2022-08-07T20:11:09.737Z,16.87
2022-08-07T20:13:44.344Z,16.80
2022-08-07T20:16:36.118Z,16.79
2022-08-07T20:19:10.378Z,16.77
2022-08-07T20:21:47.356Z,16.74
2022-08-07T20:24:20.593Z,16.70
2022-08-07T20:26:52.120Z,16.66
2022-08-07T20:29:49.129Z,16.62
2022-08-07T20:32:22.688Z,16.56
2022-08-07T20:34:55.300Z,16.53
2022-08-07T20:37:26.262Z,16.51
2022-08-07T20:40:04.290Z,16.52
2022-08-07T20:42:34.537Z,16.45
2022-08-07T20:46:24.250Z,16.38
2022-08-07T20:47:58.535Z,16.30
2022-08-07T20:50:29.152Z,16.17
2022-08-07T20:52:59.621Z,16.07
2022-08-07T20:55:28.505Z,16.03
2022-08-07T20:58:04.029Z,15.99
2022-08-07T21:00:44.406Z,16.00
2022-08-07T21:03:18.955Z,15.97
2022-08-07T21:05:56.462Z,15.95
2022-08-07T21:08:36.676Z,15.95
2022-08-07T21:11:11.977Z,15.94
2022-08-07T21:13:57.226Z,15.90
2022-08-07T21:16:37.747Z,15.86
2022-08-07T21:19:32.035Z,15.85
2022-08-07T21:22:19.079Z,15.82
2022-08-07T21:25:04.668Z,15.76
2022-08-07T21:27:53.840Z,15.70
2022-08-07T21:30:29.951Z,15.63
2022-08-07T21:33:08.050Z,15.55
2022-08-07T21:36:06.732Z,15.51
2022-08-07T21:38:38.568Z,15.52
2022-08-07T21:41:20.829Z,15.49
2022-08-07T21:43:56.172Z,15.52
2022-08-07T21:46:31.638Z,15.50
2022-08-07T21:49:15.125Z,15.47
2022-08-07T21:51:55.722Z,15.46
2022-08-07T21:54:36.226Z,15.44
2022-08-07T21:57:31.332Z,15.39
2022-08-07T22:00:22.470Z,15.29
2022-08-07T22:02:57.928Z,15.05
2022-08-07T22:05:45.161Z,14.91
2022-08-07T22:08:19.902Z,14.81
2022-08-07T22:10:50.671Z,14.69
2022-08-07T22:13:24.479Z,14.61
2022-08-07T22:16:45.609Z,14.59
2022-08-07T22:19:07.662Z,14.63
2022-08-07T22:22:01.755Z,14.60
2022-08-07T22:24:37.474Z,14.59
2022-08-07T22:27:12.952Z,14.57
2022-08-07T22:29:50.216Z,14.56
2022-08-07T22:32:24.920Z,14.64
2022-08-07T22:34:55.690Z,14.78
2022-08-07T22:38:03.921Z,14.88
2022-08-07T22:40:27.922Z,14.88
2022-08-07T22:43:02.815Z,14.76
2022-08-07T22:46:21.765Z,14.65
2022-08-07T22:49:01.330Z,14.58
2022-08-07T22:51:49.006Z,14.44
2022-08-07T22:54:52.636Z,14.38
2022-08-07T22:57:46.132Z,14.35
2022-08-07T23:00:21.518Z,14.27
2022-08-07T23:03:29.913Z,14.25
2022-08-07T23:06:31.546Z,14.22
2022-08-07T23:10:04.475Z,14.21
2022-08-07T23:12:32.525Z,14.22
2022-08-07T23:15:11.836Z,14.25
2022-08-07T23:18:10.371Z,14.26
2022-08-07T23:20:54.464Z,14.20
2022-08-07T23:24:05.640Z,14.12
2022-08-07T23:26:54.816Z,14.12
2022-08-07T23:30:35.938Z,14.08
2022-08-07T23:34:20.635Z,14.05
2022-08-07T23:35:40.319Z,14.04
2022-08-07T23:38:36.791Z,14.00
2022-08-07T23:41:20.763Z,13.95
2022-08-07T23:44:24.693Z,13.91
2022-08-07T23:47:17.884Z,13.84
2022-08-07T23:50:08.104Z,13.77
2022-08-07T23:53:00.784Z,13.75
2022-08-07T23:55:53.573Z,13.84
2022-08-07T23:58:31.316Z,13.76
